Station: Edithburgh

  Atmospheric Gas Attenuation - ITU Rec 676-11   --------------- db/100km ---------------
Date Time Temp RH % AH g/m3 Dew Point Wind Direction Speed kph Gust kph Barometer mB Rainfall Since 9am 24GHz 47GHz 76GHz 122GHz 134GHz 241GHz
16 18:20 18.4 59 9.28 10.2 24 28 1013.1 0 20.8 25.6 40.2 105.5 101.3 349.3
16 18:10 18.8 57 9.18 10.3 20 24 1013.1 0 20.6 25.4 39.6 103.9 99.5 343.1
16 18:00 18.2 59 9.17 10.1 20 26 1019.8 0 20.6 25.8 40.1 105.3 100.7 347.1
16 17:50 18.8 56 9.02 9.8 19 22 1013.1 0 20.2 25.1 39.0 102.3 97.5 336.0
16 17:40 18.5 59 9.33 10.3 24 26 1013.1 0 20.9 25.7 40.3 105.9 101.8 351.0
16 17:30 19.1 57 9.34 10.4 24 32 1019.8 0 20.9 25.8 40.3 105.9 101.7 350.7
16 17:20 19.6 56 9.45 10.8 22 26 1013.1 0 21.1 25.6 40.2 105.6 101.9 351.5
16 17:10 18.8 53 8.53 9 26 30 1013.1 0 19.2 24.4 37.1 97.4 91.4 314.7
16 17:00 19.6 51 8.61 9.2 22 30 1020 0 19.3 24.5 37.3 97.9 92.0 316.8
16 16:50 19 52 8.47 8.9 20 24 1013.1 0 19.1 24.2 36.8 96.5 90.5 311.4
16 16:40 19.7 51 8.66 9.5 20 28 1013.1 0 19.4 24.3 37.2 97.6 92.0 316.8
16 16:30 18.9 55 8.91 9.7 26 33 1020.1 0 20.0 25.2 38.8 101.8 96.6 332.7
16 16:20 18.9 52 8.42 8.8 28 32 1013.1 0 19.0 24.2 36.7 96.1 90.0 309.6
16 16:10 19.2 50 8.24 8.5 24 28 1013.1 0 18.6 23.8 35.9 94.0 87.4 300.8
16 16:00 19.5 52 8.73 9.4 28 33 1020.3 0 19.6 24.8 37.8 99.2 93.6 322.5
16 15:50 19.5 52 8.73 9.6 28 32 1013.1 0 19.6 24.5 37.5 98.5 93.1 320.6
16 15:40 19.5 51 8.56 9.1 30 33 1013.1 0 19.2 24.2 36.9 96.8 91.0 313.3
16 15:30 18.9 55 8.91 9.7 28 33 1020.8 0 20.0 25.2 38.8 101.8 96.6 332.9
16 15:20 19 56 9.13 10 28 32 1013.1 0 20.5 25.2 39.3 103.2 98.6 340.0
16 15:10 18.9 54 8.75 9.4 24 28 1013.1 0 19.7 24.7 37.9 99.4 94.0 323.9
16 15:00 18.3 56 8.76 9.4 22 28 1021.1 0 19.7 25.2 38.6 101.1 95.5 328.9
16 14:50 18.9 53 8.59 9.1 20 24 1013.1 0 19.3 24.4 37.3 97.8 92.1 316.9
16 14:40 19 50 8.15 8.3 20 22 1013.1 0 18.4 23.8 35.6 93.4 86.6 297.7
16 14:30 18.7 49 7.84 7.8 20 28 1021.4 0 17.7 23.7 35.0 91.5 83.7 287.7
16 14:20 18.8 48 7.73 7.8 19 20 1013.1 0 17.5 23.2 34.2 89.5 81.7 280.7
16 14:10 19.8 44 7.51 7.2 19 22 1013.1 0 17.0 22.6 33.0 86.3 78.1 268.2
16 14:00 19.5 47 7.89 7.9 17 24 1021.4 0 17.8 23.5 34.8 91.0 83.5 287.0
16 13:50 19.1 48 7.87 7.8 19 20 1013.1 0 17.8 23.3 34.6 90.5 83.1 285.6
16 13:40 19.5 50 8.39 8.8 17 20 1013.1 0 18.9 24.0 36.3 95.1 88.9 306.0
16 13:30 17.5 53 7.9 7.8 20 30 1021.5 0 17.9 24.1 35.7 93.4 85.8 294.6
16 13:20 17.6 55 8.25 8.4 22 28 1013.1 0 18.7 24.3 36.6 96.0 89.4 307.3
16 13:10 18.1 50 7.72 7.5 20 24 1013.1 0 17.5 23.4 34.4 90.2 82.3 282.8
16 13:00 18.3 47 7.35 6.8 19 26 1021.6 0 16.7 23.1 33.3 87.1 78.3 268.5
16 12:50 19.4 44 7.34 6.8 19 22 1013.1 0 16.7 22.5 32.5 85.1 76.5 262.6
16 12:40 19.8 42 7.17 6.8 24 28 1013.1 0 16.3 22.1 31.8 83.1 74.2 254.4
16 12:30 19.5 42 7.05 6.3 20 28 1021.7 0 16.1 22.3 31.8 83.0 73.6 252.3
16 12:20 18.9 43 6.97 6 19 22 1013.1 0 15.9 22.1 31.4 82.1 72.7 249.0
16 12:10 19.3 44 7.3 6.7 19 20 1013.1 0 16.6 22.4 32.4 84.8 76.2 261.3
16 12:00 18.6 46 7.32 6.8 17 28 1021.8 0 16.7 22.9 33.1 86.6 77.6 266.3
16 11:50 19 45 7.33 6.8 22 24 1013.1 0 16.7 22.6 32.7 85.4 76.8 263.5
16 11:40 18.4 44 6.92 5.9 19 28 1013.1 0 15.8 22.1 31.4 82.2 72.6 248.5
16 11:30 18.7 42 6.72 5.5 19 28 1021.7 0 15.4 22.0 30.9 80.7 70.5 241.2
16 11:20 18.6 45 7.16 6.4 19 26 1013.1 0 16.3 22.4 32.2 84.2 75.2 257.7
16 11:10 18.2 47 7.3 6.7 22 24 1013.1 0 16.6 22.7 32.9 86.0 77.2 264.8
16 11:00 17.9 49 7.48 7 17 26 1021.7 0 17.0 23.3 34.0 88.9 80.2 275.3
16 10:50 18 50 7.68 7.4 19 22 1013.1 0 17.4 23.3 34.3 89.9 82.0 281.4
16 10:40 17.6 50 7.5 7 20 22 1013.1 0 17.1 23.2 33.8 88.6 80.2 275.2
16 10:30 18 50 7.68 7.4 19 24 1021.8 0 17.4 23.6 34.7 90.7 82.6 283.5
16 10:20 17 51 7.38 6.8 15 19 1013.1 0 16.9 23.1 33.6 88.1 79.4 272.2
16 10:10 16.6 53 7.49 7 22 24 1013.1 0 17.1 23.4 34.2 89.6 81.1 278.2
16 10:00 17 52 7.52 7.1 17 26 1021.8 0 17.1 23.6 34.5 90.3 81.7 280.1
16 09:50 16.9 51 7.33 6.7 20 22 1013.1 0 16.8 23.1 33.5 87.7 78.8 270.4
16 09:40 17.6 50 7.5 7 22 28 1013.1 0 17.1 23.2 33.8 88.6 80.2 275.2
16 09:30 16.7 50 7.11 6.2 19 28 1021.7 0 16.3 23.1 33.1 86.5 77.0 263.7
16 09:20 16.8 49 7.01 6 20 22 1013.1 0 16.1 22.6 32.4 84.7 75.1 257.2
16 09:10 16.6 47 6.64 5.2 20 24 1013.1 0 15.3 22.1 31.1 81.3 70.9 242.4
16 09:00 16.8 48 6.86 5.7 19 26 1021.5 0 15.8 22.7 32.2 84.0 73.9 252.8
16 08:50 16.4 50 6.98 5.9 20 22 1013.1 0 16.0 22.7 32.4 84.8 75.1 257.3
16 08:40 16.2 51 7.03 6 19 20 1013.1 0 16.1 22.8 32.7 85.5 75.9 260.0
16 08:30 16.1 52 7.13 6.3 19 28 1021.3 0 16.4 23.3 33.4 87.3 77.8 266.4
16 08:20 16 54 7.36 6.7 19 20 1013.1 0 16.9 23.4 34.0 89.0 80.1 274.7
16 08:10 16.1 54 7.4 6.8 20 28 1013.1 0 16.9 23.4 34.1 89.3 80.5 276.1
16 08:00 15.6 55 7.31 6.6 19 24 1021 0 16.8 23.7 34.3 89.7 80.5 275.8
16 07:50 15.6 55 7.31 6.6 22 24 1013.1 0 16.8 23.4 34.0 88.9 79.9 273.9
16 07:40 15.4 55 7.23 6.6 19 22 1013.1 0 16.6 23.3 33.8 88.3 79.1 271.2
16 07:30 15.4 55 7.23 6.4 19 28 1020.9 0 16.6 23.6 34.1 89.1 79.7 273.0
16 07:20 15.3 54 7.05 6 15 19 1013.1 0 16.2 23.1 33.1 86.7 77.0 263.8
16 07:10 15.3 54 7.05 6 17 19 1013.1 0 16.2 23.1 33.1 86.7 77.0 263.8
16 07:00 15.2 54 7.01 6 17 22 1020.6 0 16.1 23.3 33.3 87.1 77.1 264.1
16 06:50 15.1 55 7.1 6.1 19 20 1013.1 0 16.3 23.2 33.4 87.4 77.8 266.6
16 06:40 15.1 55 7.1 6.1 13 17 1013.1 0 16.3 23.2 33.4 87.4 77.8 266.6
16 06:30 15.2 56 7.27 6.5 15 24 1020.4 0 16.7 23.7 34.3 89.7 80.3 275.3
16 06:20 15.1 53 6.84 5.8 15 17 1013.1 0 15.8 22.8 32.4 84.8 74.7 255.5
16 06:10 15.1 53 6.84 5.8 11 15 1013.1 0 15.8 22.8 32.4 84.8 74.7 255.5
16 06:00 15.1 53 6.84 5.6 17 24 1020.2 0 15.8 23.1 32.7 85.5 75.1 257.0
16 05:50 15.1 52 6.71 5.3 13 17 1013.1 0 15.5 22.6 32.0 83.5 73.1 249.9
16 05:40 15.1 51 6.58 5 15 17 1013.1 0 15.2 22.4 31.5 82.3 71.5 244.4
16 05:30 15.1 52 6.71 5.3 19 24 1020.1 0 15.5 22.9 32.2 84.2 73.5 251.4
16 05:20 15.1 53 6.84 5.6 15 19 1013.1 0 15.8 22.8 32.4 84.8 74.7 255.5
16 05:10 15.1 55 7.1 6.1 19 20 1013.1 0 16.3 23.2 33.4 87.4 77.8 266.6
16 04:50 15.2 51 6.62 5.1 17 20 1013.1 0 15.3 22.5 31.6 82.6 71.9 245.8
16 04:40 15.3 51 6.66 5.2 20 24 1013.1 0 15.4 22.5 31.7 82.8 72.3 247.2
16 04:30 15.2 54 7.01 6 20 30 1019.3 0 16.1 23.3 33.3 87.0 77.0 263.8
16 04:20 15.1 59 7.61 7.1 22 26 1013.1 0 17.4 24.0 35.3 92.5 84.1 288.7
16 04:10 15.1 59 7.61 7.1 13 17 1013.1 0 17.4 24.0 35.3 92.5 84.1 288.7
16 04:00 15.1 57 7.35 6.7 19 28 1019.3 0 16.9 23.8 34.6 90.5 81.3 278.8
16 03:50 15.2 54 7.01 5.9 22 24 1013.1 0 16.1 23.0 33.0 86.4 76.6 262.4
16 03:40 15.2 52 6.75 5.4 24 26 1013.1 0 15.6 22.6 32.1 83.8 73.5 251.3
16 03:30 15.2 53 6.88 5.7 20 28 1019.3 0 15.9 23.1 32.8 85.7 75.5 258.2
16 03:20 15.2 51 6.62 5.1 20 22 1013.1 0 15.3 22.5 31.6 82.6 71.9 245.8
16 03:10 15.2 55 7.14 6.2 20 28 1013.1 0 16.4 23.2 33.5 87.7 78.2 268.0
16 03:00 15.1 51 6.58 5 22 32 1019.4 0 15.2 22.6 31.7 82.8 71.9 245.8
16 02:50 15.1 51 6.58 5 24 28 1013.1 0 15.2 22.4 31.5 82.3 71.5 244.4
16 02:40 15 52 6.67 5.2 24 30 1013.1 0 15.4 22.6 31.9 83.2 72.7 248.6
16 02:30 15.1 51 6.58 5 24 33 1019.7 0 15.2 22.7 31.7 82.9 71.9 245.8
16 02:20 15 51 6.54 4.9 24 28 1013.1 0 15.2 22.4 31.4 82.0 71.1 243.1
16 02:10 15 48 6.15 4.3 17 20 1013.1 0 14.3 21.8 30.0 78.2 66.5 226.7
16 02:00 15.2 52 6.75 5.4 26 37 1019.8 0 15.6 22.9 32.3 84.4 73.9 252.8
16 01:50 15.3 55 7.18 6.3 30 35 1013.1 0 16.5 23.3 33.6 88.0 78.6 269.4
16 01:40 15.2 55 7.14 6.2 24 30 1013.1 0 16.4 23.2 33.5 87.7 78.2 268.0

Last Refresh: 16-Jan-2021 18:33:06

Most of the information presented on this site is sourced from the Bureau of Meteorology.  Copyright in all material sourced from the Bureau of Meteorology resides with the Commonwealth of Australia.